createdAt,value
2018-11-11T00:30:45.861Z,7.56
2018-11-11T00:33:14.955Z,7.50
2018-11-11T00:35:44.027Z,7.60
2018-11-11T00:38:13.094Z,7.60
2018-11-11T00:40:42.199Z,7.56
2018-11-11T00:43:11.271Z,7.58
2018-11-11T00:45:40.381Z,7.70
2018-11-11T00:48:09.473Z,7.63
2018-11-11T00:50:38.537Z,7.72
2018-11-11T00:53:07.623Z,7.66
2018-11-11T00:55:39.047Z,7.70
2018-11-11T00:58:08.355Z,7.69
2018-11-11T01:00:37.430Z,7.78
2018-11-11T01:03:06.541Z,7.87
2018-11-11T01:05:35.645Z,7.99
2018-11-11T01:08:04.768Z,8.03
2018-11-11T01:10:33.849Z,7.93
2018-11-11T01:13:02.915Z,7.94
2018-11-11T01:15:32.110Z,7.90
2018-11-11T01:18:01.265Z,8.00
2018-11-11T01:20:30.427Z,7.98
2018-11-11T01:22:59.504Z,8.09
2018-11-11T01:25:28.580Z,8.03
2018-11-11T01:27:57.656Z,8.02
2018-11-11T01:30:26.788Z,7.93
2018-11-11T01:32:55.934Z,8.02
2018-11-11T01:35:25.104Z,7.83
2018-11-11T01:37:54.277Z,7.89
2018-11-11T01:40:23.392Z,7.79
2018-11-11T01:42:52.788Z,7.84
2018-11-11T01:45:21.938Z,7.81
2018-11-11T01:47:51.071Z,7.89
2018-11-11T01:50:20.148Z,8.04
2018-11-11T01:52:49.239Z,7.85
2018-11-11T01:55:18.363Z,7.93
2018-11-11T01:57:47.487Z,7.84
2018-11-11T02:00:17.797Z,7.81
2018-11-11T02:02:47.667Z,7.77
2018-11-11T02:05:16.910Z,7.75
2018-11-11T02:07:46.709Z,7.73
2018-11-11T02:10:15.795Z,7.71
2018-11-11T02:12:45.763Z,7.80
2018-11-11T02:15:15.840Z,7.92
2018-11-11T02:17:44.955Z,7.89
2018-11-11T02:20:19.165Z,8.00
2018-11-11T02:22:49.387Z,7.89
2018-11-11T02:25:18.472Z,8.00
2018-11-11T02:27:47.784Z,7.86
2018-11-11T02:30:18.198Z,7.57
2018-11-11T02:32:47.337Z,7.86
2018-11-11T02:35:16.397Z,7.52
2018-11-11T02:37:45.792Z,7.50
2018-11-11T02:40:17.041Z,7.17
2018-11-11T02:42:46.459Z,7.08
2018-11-11T02:45:16.558Z,7.27
2018-11-11T02:47:45.671Z,7.29
2018-11-11T02:50:15.911Z,7.52
2018-11-11T02:52:45.478Z,7.57
2018-11-11T02:55:14.998Z,7.50
2018-11-11T02:57:44.570Z,7.73
2018-11-11T03:00:14.928Z,7.72
2018-11-11T03:02:44.736Z,7.42
2018-11-11T03:05:14.850Z,7.49
2018-11-11T03:07:43.982Z,7.39
2018-11-11T03:10:14.201Z,7.28
2018-11-11T03:12:43.873Z,7.63
2018-11-11T03:15:13.791Z,7.76
2018-11-11T03:17:42.992Z,7.42
2018-11-11T03:20:12.748Z,7.60
2018-11-11T03:22:41.834Z,7.55
2018-11-11T03:25:12.227Z,7.50
2018-11-11T03:27:41.860Z,7.57
2018-11-11T03:30:12.266Z,7.50
2018-11-11T03:32:41.557Z,7.49
2018-11-11T03:35:11.584Z,7.54
2018-11-11T03:37:41.184Z,7.42
2018-11-11T03:40:13.558Z,7.40
2018-11-11T03:42:43.057Z,7.41
2018-11-11T03:45:13.496Z,7.56
2018-11-11T03:47:43.623Z,7.56
2018-11-11T03:50:12.688Z,7.48
2018-11-11T03:52:42.199Z,7.49
2018-11-11T03:55:11.505Z,7.42
2018-11-11T03:57:40.615Z,7.42
2018-11-11T04:00:11.243Z,7.51
2018-11-11T04:02:40.639Z,7.52
2018-11-11T04:05:10.970Z,7.55
2018-11-11T04:07:40.704Z,7.59
2018-11-11T04:10:12.036Z,7.67
2018-11-11T04:12:41.404Z,7.82
2018-11-11T04:15:12.950Z,7.77
2018-11-11T04:17:42.041Z,7.61
2018-11-11T04:20:13.930Z,7.59
2018-11-11T04:22:42.992Z,7.62
2018-11-11T04:25:12.533Z,7.60
2018-11-11T04:27:41.625Z,7.78
2018-11-11T04:30:11.737Z,7.65
2018-11-11T04:32:41.250Z,7.75
2018-11-11T04:35:10.751Z,7.74
2018-11-11T04:37:39.949Z,7.81
2018-11-11T04:40:10.474Z,7.73
2018-11-11T04:42:39.549Z,7.78
2018-11-11T04:45:10.287Z,7.88
2018-11-11T04:47:39.414Z,7.94
2018-11-11T04:50:09.941Z,7.99
2018-11-11T04:52:39.027Z,7.86
2018-11-11T04:57:47.859Z,7.77
2018-11-11T05:00:16.945Z,7.70
2018-11-11T05:02:46.014Z,7.78
2018-11-11T05:05:15.376Z,7.86
2018-11-11T05:07:44.553Z,7.97
2018-11-11T05:10:14.208Z,7.93
2018-11-11T05:12:43.278Z,7.99
2018-11-11T05:15:13.371Z,7.87
2018-11-11T05:17:42.664Z,7.75
2018-11-11T05:20:12.628Z,7.69
2018-11-11T05:22:42.219Z,7.55
2018-11-11T05:25:12.677Z,7.47
2018-11-11T05:27:42.057Z,7.42
2018-11-11T05:30:11.957Z,7.40
2018-11-11T05:32:41.179Z,7.40
2018-11-11T05:35:11.371Z,7.37
2018-11-11T05:37:41.149Z,7.33
2018-11-11T05:40:11.297Z,7.40
2018-11-11T05:42:41.089Z,7.40
2018-11-11T05:45:11.308Z,7.42
2018-11-11T05:47:40.924Z,7.40
2018-11-11T05:50:11.867Z,7.31
2018-11-11T05:52:41.351Z,7.35
2018-11-11T05:55:10.663Z,7.39
2018-11-11T05:57:39.885Z,7.40
2018-11-11T06:00:11.055Z,7.44
2018-11-11T06:02:40.415Z,7.41
2018-11-11T06:05:11.239Z,7.28
2018-11-11T06:07:40.415Z,7.31
2018-11-11T06:10:11.104Z,7.41
2018-11-11T06:12:40.268Z,7.34
2018-11-11T06:15:10.827Z,7.24
2018-11-11T06:17:39.943Z,7.17
2018-11-11T06:20:11.532Z,7.10
2018-11-11T06:22:40.868Z,7.14
2018-11-11T06:25:10.424Z,7.27
2018-11-11T06:27:39.583Z,7.31
2018-11-11T06:30:14.220Z,7.27
2018-11-11T06:32:43.348Z,7.28
2018-11-11T06:35:12.502Z,7.19
2018-11-11T06:37:41.700Z,7.19
2018-11-11T06:40:11.824Z,7.09
2018-11-11T06:42:41.305Z,7.04
2018-11-11T06:45:12.161Z,6.96
2018-11-11T06:47:41.974Z,7.00
2018-11-11T06:50:12.331Z,6.99
2018-11-11T06:52:41.897Z,7.03
2018-11-11T06:55:11.294Z,7.03
2018-11-11T06:57:40.720Z,7.09
2018-11-11T07:00:12.495Z,7.17
2018-11-11T07:02:51.836Z,7.21
2018-11-11T07:05:20.907Z,7.31
2018-11-11T07:07:50.352Z,7.35
2018-11-11T07:10:19.421Z,7.38
2018-11-11T07:12:48.590Z,7.58
2018-11-11T07:15:17.764Z,7.52
2018-11-11T07:17:47.004Z,7.60
2018-11-11T07:20:16.256Z,7.53
2018-11-11T07:22:45.380Z,7.48
2018-11-11T07:25:14.540Z,7.46
2018-11-11T07:27:43.760Z,7.43
2018-11-11T07:30:12.925Z,7.45
2018-11-11T07:32:42.256Z,7.50
2018-11-11T07:35:11.785Z,7.47
2018-11-11T07:37:40.924Z,7.68
2018-11-11T07:40:12.230Z,7.84
2018-11-11T07:42:41.619Z,8.12
2018-11-11T07:45:10.762Z,8.15
2018-11-11T07:47:40.095Z,8.17
2018-11-11T07:50:10.536Z,8.10
2018-11-11T07:52:39.752Z,8.10
2018-11-11T07:55:10.565Z,8.10
2018-11-11T07:57:39.608Z,8.12
2018-11-11T08:00:10.755Z,8.12
2018-11-11T08:02:39.936Z,8.09
2018-11-11T08:05:09.220Z,8.02
2018-11-11T08:07:38.329Z,8.15
2018-11-11T08:10:18.900Z,8.37
2018-11-11T08:12:48.028Z,8.50
2018-11-11T08:15:17.095Z,8.58
2018-11-11T08:17:46.305Z,8.68
2018-11-11T08:20:15.411Z,8.82
2018-11-11T08:22:44.759Z,9.02
2018-11-11T08:25:13.991Z,9.10
2018-11-11T08:27:43.111Z,9.08
2018-11-11T08:30:12.321Z,9.08
2018-11-11T08:32:41.497Z,9.14
2018-11-11T08:35:10.857Z,9.04
2018-11-11T08:37:40.238Z,9.15
2018-11-11T08:40:10.085Z,9.03
2018-11-11T08:42:39.193Z,9.09
2018-11-11T08:45:10.530Z,9.00
2018-11-11T08:47:39.679Z,9.22
2018-11-11T08:50:09.661Z,9.28
2018-11-11T08:52:38.860Z,9.29
2018-11-11T08:55:08.002Z,9.32
2018-11-11T08:57:37.189Z,9.42
2018-11-11T09:00:11.038Z,9.33
2018-11-11T09:02:40.411Z,9.34
2018-11-11T09:05:09.920Z,9.37
2018-11-11T09:07:39.508Z,9.39
2018-11-11T09:10:10.273Z,9.49
2018-11-11T09:12:40.786Z,9.62
2018-11-11T09:15:12.424Z,9.51
2018-11-11T09:17:41.996Z,9.73
2018-11-11T09:20:11.704Z,9.83
2018-11-11T09:22:41.099Z,9.90
2018-11-11T09:25:10.619Z,9.96
2018-11-11T09:27:40.952Z,10.08
2018-11-11T09:30:12.330Z,10.07
2018-11-11T09:32:41.644Z,10.11
2018-11-11T09:35:11.089Z,10.00
2018-11-11T09:37:40.585Z,10.14
2018-11-11T09:40:10.723Z,10.25
2018-11-11T09:42:40.098Z,10.36
2018-11-11T09:45:11.020Z,10.48
2018-11-11T09:47:40.272Z,10.54
2018-11-11T09:50:11.155Z,10.72
2018-11-11T09:52:40.422Z,10.83
2018-11-11T09:55:10.729Z,10.77
2018-11-11T09:57:40.285Z,10.79
2018-11-11T10:00:14.889Z,10.92
2018-11-11T10:02:49.336Z,11.05
2018-11-11T10:05:28.484Z,11.08
2018-11-11T10:08:03.641Z,11.14
2018-11-11T10:10:46.149Z,11.52
2018-11-11T10:13:20.645Z,11.86
2018-11-11T10:16:54.837Z,12.10
2018-11-11T10:19:30.520Z,12.08
2018-11-11T10:22:04.730Z,11.92
2018-11-11T10:24:56.866Z,11.94
2018-11-11T10:27:32.583Z,11.82
2018-11-11T10:30:36.110Z,11.76
2018-11-11T10:33:21.333Z,11.80
2018-11-11T10:35:55.663Z,11.83
2018-11-11T10:39:34.061Z,11.88
2018-11-11T10:43:06.040Z,11.91
2018-11-11T10:45:39.531Z,11.88
2018-11-11T10:48:09.493Z,11.86
2018-11-11T10:50:41.907Z,11.89
2018-11-11T10:53:11.003Z,11.92
2018-11-11T10:55:40.100Z,12.11
2018-11-11T10:58:09.349Z,12.38
2018-11-11T11:00:43.920Z,12.31
2018-11-11T11:03:18.364Z,12.38
2018-11-11T11:05:47.475Z,12.51
2018-11-11T11:08:16.549Z,13.07
2018-11-11T11:10:45.652Z,13.52
2018-11-11T11:13:14.748Z,13.92
2018-11-11T11:15:43.831Z,13.89
2018-11-11T11:18:12.948Z,15.66
2018-11-11T11:20:42.212Z,17.15
2018-11-11T11:23:11.502Z,17.15
2018-11-11T11:25:40.663Z,18.38
2018-11-11T11:28:09.780Z,18.93
2018-11-11T11:30:39.010Z,19.71
2018-11-11T11:33:08.112Z,20.23
2018-11-11T11:35:37.321Z,21.74
2018-11-11T11:38:06.516Z,22.55
2018-11-11T11:40:35.606Z,22.64
2018-11-11T11:43:04.933Z,23.61
2018-11-11T11:45:34.098Z,25.41
2018-11-11T11:48:03.185Z,21.23
2018-11-11T11:50:33.070Z,-91.22
2018-11-11T11:53:02.135Z,20.21
2018-11-11T11:55:31.207Z,24.14
2018-11-11T11:58:11.641Z,22.03
2018-11-11T12:00:40.671Z,20.65
2018-11-11T12:03:09.844Z,19.75
2018-11-11T12:05:39.090Z,20.97
2018-11-11T12:08:08.181Z,19.07
2018-11-11T12:10:37.309Z,19.23
2018-11-11T12:13:06.947Z,19.34
2018-11-11T12:15:36.057Z,22.33
2018-11-11T12:18:05.325Z,26.20
2018-11-11T12:20:34.589Z,26.20
2018-11-11T12:23:03.751Z,28.90
2018-11-11T12:25:32.819Z,28.80
2018-11-11T12:28:02.021Z,28.49
2018-11-11T12:30:31.487Z,27.19
2018-11-11T12:33:00.561Z,26.73
2018-11-11T12:35:29.628Z,27.43
2018-11-11T12:37:59.100Z,29.14
2018-11-11T12:40:28.317Z,28.62
2018-11-11T12:42:57.572Z,28.97
2018-11-11T12:45:26.746Z,29.52
2018-11-11T12:47:56.073Z,29.30
2018-11-11T12:50:25.265Z,29.87
2018-11-11T12:52:54.320Z,30.65
2018-11-11T12:55:23.535Z,30.12
2018-11-11T12:57:52.616Z,29.84
2018-11-11T13:00:21.730Z,30.75
2018-11-11T13:02:50.830Z,29.83
2018-11-11T13:05:19.916Z,30.25
2018-11-11T13:07:49.011Z,30.15
2018-11-11T13:10:18.092Z,30.44
2018-11-11T13:12:47.241Z,29.88
2018-11-11T13:15:16.316Z,30.12
2018-11-11T13:17:45.360Z,29.75
2018-11-11T13:20:15.942Z,30.88
2018-11-11T13:22:45.222Z,31.16
2018-11-11T13:25:14.735Z,30.40
2018-11-11T13:27:43.858Z,31.08
2018-11-11T13:30:14.180Z,31.60
2018-11-11T13:32:43.421Z,31.21
2018-11-11T13:35:13.907Z,30.45
2018-11-11T13:37:43.253Z,30.88
2018-11-11T13:40:14.589Z,30.83
2018-11-11T13:42:43.714Z,30.78
2018-11-11T13:45:15.209Z,31.60
2018-11-11T13:47:45.297Z,31.78
2018-11-11T13:50:16.515Z,30.66
2018-11-11T13:52:46.144Z,31.00
2018-11-11T13:55:15.903Z,30.72
2018-11-11T13:57:45.606Z,32.10
2018-11-11T14:00:17.101Z,31.84
2018-11-11T14:02:46.341Z,31.71
2018-11-11T14:05:15.634Z,30.35
2018-11-11T14:07:44.680Z,30.75
2018-11-11T14:10:14.786Z,30.37
2018-11-11T14:12:43.971Z,30.26
2018-11-11T14:15:16.263Z,30.09
2018-11-11T14:17:45.917Z,30.34
2018-11-11T14:20:16.373Z,31.11
2018-11-11T14:22:46.541Z,29.67
2018-11-11T14:25:19.723Z,29.79
2018-11-11T14:27:48.820Z,29.48
2018-11-11T14:30:20.309Z,27.07
2018-11-11T14:32:50.335Z,27.07
2018-11-11T14:35:19.468Z,23.33
2018-11-11T14:37:48.844Z,22.08
2018-11-11T14:40:22.872Z,22.01
2018-11-11T14:42:52.073Z,21.17
2018-11-11T14:45:21.802Z,21.41
2018-11-11T14:47:52.111Z,21.17
2018-11-11T14:50:21.783Z,21.44
2018-11-11T14:52:51.053Z,22.75
2018-11-11T14:55:23.517Z,22.64
2018-11-11T14:57:52.604Z,20.92
2018-11-11T15:00:23.290Z,20.50
2018-11-11T15:02:59.385Z,19.38
2018-11-11T15:05:28.586Z,18.21
2018-11-11T15:07:57.807Z,17.42
2018-11-11T15:10:26.922Z,17.09
2018-11-11T15:12:56.023Z,16.74
2018-11-11T15:15:25.548Z,16.23
2018-11-11T15:17:55.569Z,15.83
2018-11-11T15:20:24.751Z,15.69
2018-11-11T15:22:53.731Z,15.59
2018-11-11T15:25:24.231Z,15.18
2018-11-11T15:27:53.244Z,15.10
2018-11-11T15:30:23.590Z,14.84
2018-11-11T15:32:53.210Z,14.87
2018-11-11T15:35:22.348Z,14.55
2018-11-11T15:37:51.595Z,14.43
2018-11-11T15:40:25.187Z,14.40
2018-11-11T15:42:54.376Z,14.39
2018-11-11T15:45:33.037Z,14.16
2018-11-11T15:48:02.400Z,14.02
2018-11-11T15:50:32.748Z,13.78
2018-11-11T15:53:03.163Z,13.70
2018-11-11T15:55:33.672Z,13.52
2018-11-11T15:58:02.919Z,13.32
2018-11-11T16:00:33.380Z,13.46
2018-11-11T16:03:02.527Z,13.27
2018-11-11T16:05:31.616Z,13.33
2018-11-11T16:08:01.446Z,13.01
2018-11-11T16:10:31.788Z,13.01
2018-11-11T16:13:01.097Z,12.83
2018-11-11T16:15:36.710Z,12.84
2018-11-11T16:18:07.903Z,12.87
2018-11-11T16:20:37.085Z,12.79
2018-11-11T16:23:07.065Z,12.77
2018-11-11T16:25:36.578Z,12.72
2018-11-11T16:28:05.891Z,12.77
2018-11-11T16:30:36.282Z,12.58
2018-11-11T16:33:06.779Z,12.49
2018-11-11T16:35:35.880Z,12.45
2018-11-11T16:38:05.676Z,12.43
2018-11-11T16:40:36.004Z,12.32
2018-11-11T16:43:05.207Z,12.28
2018-11-11T16:45:35.233Z,12.05
2018-11-11T16:48:04.485Z,12.13
2018-11-11T16:50:34.667Z,12.10
2018-11-11T16:53:05.324Z,12.12
2018-11-11T16:55:35.296Z,12.08
2018-11-11T16:58:04.496Z,12.21
2018-11-11T17:00:35.034Z,12.24
2018-11-11T17:03:04.962Z,12.07
2018-11-11T17:05:35.114Z,11.95
2018-11-11T17:08:04.456Z,11.73
2018-11-11T17:10:34.940Z,11.75
2018-11-11T17:13:10.606Z,11.54
2018-11-11T17:15:39.811Z,11.47
2018-11-11T17:18:08.901Z,11.23
2018-11-11T17:20:38.014Z,11.30
2018-11-11T17:23:08.153Z,11.43
2018-11-11T17:25:37.244Z,11.48
2018-11-11T17:28:06.609Z,11.39
2018-11-11T17:30:35.734Z,11.35
2018-11-11T17:33:08.234Z,11.27
2018-11-11T17:35:37.263Z,11.27
2018-11-11T17:38:06.469Z,11.25
2018-11-11T17:40:35.549Z,11.16
2018-11-11T17:43:04.689Z,10.99
2018-11-11T17:45:33.867Z,11.08
2018-11-11T17:48:02.955Z,11.03
2018-11-11T17:50:33.226Z,10.78
2018-11-11T17:53:03.864Z,10.78
2018-11-11T17:55:33.009Z,10.68
2018-11-11T17:58:02.093Z,10.74
2018-11-11T18:00:31.849Z,10.63
2018-11-11T18:03:01.894Z,10.56
2018-11-11T18:05:31.697Z,10.48
2018-11-11T18:08:00.990Z,10.57
2018-11-11T18:10:30.191Z,10.75
2018-11-11T18:12:59.252Z,10.92
2018-11-11T18:15:30.332Z,10.85
2018-11-11T18:17:59.426Z,10.93
2018-11-11T18:20:29.866Z,11.02
2018-11-11T18:23:00.214Z,10.97
2018-11-11T18:25:29.384Z,10.96
2018-11-11T18:27:58.736Z,10.95
2018-11-11T18:30:33.432Z,10.78
2018-11-11T18:33:14.834Z,10.79
2018-11-11T18:35:44.045Z,10.74
2018-11-11T18:38:13.138Z,10.67
2018-11-11T18:40:42.284Z,10.71
2018-11-11T18:43:11.449Z,10.37
2018-11-11T18:45:40.668Z,10.06
2018-11-11T18:48:09.715Z,9.81
2018-11-11T18:50:38.820Z,9.93
2018-11-11T18:53:07.932Z,9.98
2018-11-11T18:55:37.110Z,9.76
2018-11-11T18:58:06.312Z,9.62
2018-11-11T19:00:35.728Z,9.66
2018-11-11T19:03:04.861Z,9.75
2018-11-11T19:05:34.029Z,9.71
2018-11-11T19:08:03.127Z,9.72
2018-11-11T19:10:33.342Z,9.62
2018-11-11T19:13:05.883Z,9.33
2018-11-11T19:15:34.964Z,9.25
2018-11-11T19:18:04.079Z,9.36
2018-11-11T19:20:33.170Z,9.46
2018-11-11T19:23:02.284Z,9.53
2018-11-11T19:25:31.967Z,9.36
2018-11-11T19:28:01.988Z,9.35
2018-11-11T19:30:31.717Z,9.34
2018-11-11T19:33:00.892Z,9.40
2018-11-11T19:35:29.960Z,9.39
2018-11-11T19:37:59.500Z,9.26
2018-11-11T19:40:29.224Z,9.23
2018-11-11T19:42:59.608Z,9.25
2018-11-11T19:45:29.749Z,9.24
2018-11-11T19:47:58.852Z,9.27
2018-11-11T19:50:28.852Z,9.26
2018-11-11T19:52:58.564Z,9.36
2018-11-11T19:55:28.034Z,9.05
2018-11-11T19:57:57.132Z,9.10
2018-11-11T20:00:27.404Z,9.19
2018-11-11T20:02:57.336Z,9.21
2018-11-11T20:05:26.462Z,9.14
2018-11-11T20:07:56.610Z,9.05
2018-11-11T20:10:26.665Z,9.23
2018-11-11T20:12:55.792Z,9.20
2018-11-11T20:15:26.376Z,9.20
2018-11-11T20:17:55.501Z,9.11
2018-11-11T20:20:27.316Z,9.10
2018-11-11T20:22:56.410Z,8.98
2018-11-11T20:25:25.565Z,9.04
2018-11-11T20:27:54.735Z,8.94
2018-11-11T20:30:25.233Z,8.98
2018-11-11T20:32:54.361Z,9.01
2018-11-11T20:35:24.930Z,8.74
2018-11-11T20:37:54.152Z,8.63
2018-11-11T20:40:24.165Z,8.44
2018-11-11T20:42:53.784Z,8.43
2018-11-11T20:45:24.405Z,8.36
2018-11-11T20:47:53.617Z,8.57
2018-11-11T20:50:24.165Z,8.58
2018-11-11T20:52:56.005Z,8.55
2018-11-11T20:55:25.154Z,8.67
2018-11-11T20:57:54.263Z,8.66
2018-11-11T21:00:24.725Z,8.36
2018-11-11T21:02:54.036Z,8.28
2018-11-11T21:05:25.363Z,8.47
2018-11-11T21:07:54.584Z,8.60
2018-11-11T21:10:25.072Z,8.40
2018-11-11T21:12:54.264Z,8.39
2018-11-11T21:15:24.693Z,8.31
2018-11-11T21:17:53.799Z,8.17
2018-11-11T21:20:24.444Z,8.18
2018-11-11T21:22:53.548Z,7.88
2018-11-11T21:25:22.986Z,7.79
2018-11-11T21:27:52.885Z,8.06
2018-11-11T21:30:26.899Z,7.93
2018-11-11T21:32:56.268Z,8.16
2018-11-11T21:35:25.724Z,8.16
2018-11-11T21:37:54.933Z,8.14
2018-11-11T21:40:25.344Z,8.06
2018-11-11T21:42:55.444Z,7.87
2018-11-11T21:45:25.871Z,8.04
2018-11-11T21:47:55.054Z,8.05
2018-11-11T21:50:25.778Z,8.06
2018-11-11T21:53:09.831Z,7.94
2018-11-11T21:55:39.121Z,7.80
2018-11-11T21:58:08.513Z,7.83
2018-11-11T22:00:38.271Z,7.57
2018-11-11T22:03:07.391Z,7.78
2018-11-11T22:05:36.450Z,7.82
2018-11-11T22:08:05.529Z,7.90
2018-11-11T22:10:34.653Z,8.18
2018-11-11T22:13:03.753Z,8.15
2018-11-11T22:15:32.935Z,8.16
2018-11-11T22:18:01.979Z,8.05
2018-11-11T22:20:31.065Z,8.21
2018-11-11T22:23:00.204Z,8.16
2018-11-11T22:25:29.236Z,8.19
2018-11-11T22:27:58.416Z,8.23
2018-11-11T22:30:27.473Z,8.28
2018-11-11T22:32:56.576Z,8.28
2018-11-11T22:35:25.639Z,8.28
2018-11-11T22:37:54.706Z,8.15
2018-11-11T22:40:23.831Z,7.99
2018-11-11T22:42:52.974Z,8.19
2018-11-11T22:45:22.051Z,8.29
2018-11-11T22:47:51.175Z,8.34
2018-11-11T22:50:20.455Z,8.38
2018-11-11T22:52:49.561Z,8.33
2018-11-11T22:55:18.647Z,8.36
2018-11-11T22:57:47.959Z,8.42
2018-11-11T23:00:22.280Z,8.27
2018-11-11T23:02:51.850Z,8.17
2018-11-11T23:05:21.870Z,8.13
2018-11-11T23:07:51.188Z,8.30
2018-11-11T23:10:20.272Z,8.25
2018-11-11T23:12:49.375Z,8.07
2018-11-11T23:15:20.026Z,7.97
2018-11-11T23:17:49.258Z,8.03
2018-11-11T23:20:19.627Z,7.89
2018-11-11T23:22:48.784Z,7.85
2018-11-11T23:25:18.824Z,7.64
2018-11-11T23:27:47.940Z,7.52
2018-11-11T23:30:23.633Z,7.66
2018-11-11T23:32:52.971Z,7.65
2018-11-11T23:35:22.073Z,7.76
2018-11-11T23:37:51.180Z,7.75
2018-11-11T23:40:20.288Z,7.70
2018-11-11T23:42:49.366Z,7.26
2018-11-11T23:45:18.555Z,7.38
2018-11-11T23:47:47.643Z,7.21
2018-11-11T23:50:18.074Z,7.38
2018-11-11T23:52:47.538Z,7.34
2018-11-11T23:55:17.796Z,7.37
2018-11-11T23:57:46.924Z,7.41
